Jinotega, Nicaragua
Current Conditions -  °F | °C
As of 12:00 AM on Sunday 26 Oct 2014 (Local Time) from MNMG Reporting Station
Scattered Clouds Scattered Clouds  
Wind Chill: 77°   Ceiling: Unl
Heat Index: 78°   Visibility: 6mi
Dew Point: 72°   Wind: 5mph
Humidity: 83%   Direction: 100°E
Pressure: 29.85"   Gusts: NA
Location:  13.1°N, 86°W
Report Text: MNMG 260600Z 10004KT 9999 FEW015CB SCT070 25/22 Q1011 A2985 CB SW W NW NE E SE NOSIG
Loading
Personal Weather Stations






























Interactive Weather Map
Tropical Storm Tracking
New forecast layout! Learn more

10-Day Weather Forecast

Advertisements
Track Severe Weather on mobile